Track Степанов Александр

Time Latitude Longitude Accuracy (66% radius in meters) Altitude (meters) Speed (km/hour) Bearing (degrees) Battery (%) GPS flag
06:31:38 57.208137 60.114321 0 0 0 0 1 delete
06:31:36 57.208186 60.114326 0 0 0 0 1 delete
06:31:35 57.208213 60.114324 0 0 0 0 1 delete
06:31:22 57.208235 60.114360 0 0 0 0 1 delete
06:31:20 57.208233 60.114411 0 0 0 0 1 delete
06:31:19 57.208223 60.114363 0 0 0 0 1 delete
06:31:18 57.208258 60.114419 0 0 0 0 1 delete
06:31:17 57.208291 60.114475 0 0 0 0 1 delete
06:31:16 57.208315 60.114541 0 0 0 0 1 delete
06:31:15 57.208363 60.114621 0 0 0 0 1 delete
06:31:14 57.208356 60.114711 0 0 0 0 1 delete
06:31:13 57.208335 60.114819 0 0 0 0 1 delete
06:31:12 57.208298 60.114893 0 0 0 0 1 delete
06:31:11 57.208286 60.114975 0 0 0 0 1 delete
06:31:10 57.208303 60.115057 0 0 0 0 1 delete
06:31:09 57.208338 60.115119 0 0 0 0 1 delete
06:31:08 57.208357 60.115178 0 0 0 0 1 delete
06:31:07 57.208385 60.115246 0 0 0 0 1 delete
06:31:06 57.208406 60.115294 0 0 0 0 1 delete
06:31:05 57.208443 60.115318 0 0 0 0 1 delete
06:31:04 57.208456 60.115384 0 0 0 0 1 delete
06:31:03 57.208477 60.115437 0 0 0 0 1 delete
06:31:02 57.208501 60.115471 0 0 0 0 1 delete
06:31:01 57.208521 60.115526 0 0 0 0 1 delete
06:31:00 57.208540 60.115567 0 0 0 0 1 delete
06:30:59 57.208561 60.115628 0 0 0 0 1 delete
06:30:58 57.208588 60.115659 0 0 0 0 1 delete
06:30:56 57.208634 60.115709 0 0 0 0 1 delete
06:30:54 57.208694 60.115764 0 0 0 0 1 delete
06:30:53 57.208730 60.115781 0 0 0 0 1 delete
06:30:52 57.208767 60.115837 0 0 0 0 1 delete
06:30:51 57.208802 60.115839 0 0 0 0 1 delete
06:30:50 57.208837 60.115880 0 0 0 0 1 delete
06:30:49 57.208870 60.115939 0 0 0 0 1 delete
06:30:48 57.208893 60.115991 0 0 0 0 1 delete
06:30:47 57.208917 60.116042 0 0 0 0 1 delete
06:30:46 57.208936 60.116092 0 0 0 0 1 delete
06:30:45 57.208948 60.116142 0 0 0 0 1 delete
06:30:43 57.208972 60.116175 0 0 0 0 1 delete
06:30:42 57.208999 60.116175 0 0 0 0 1 delete
06:30:40 57.209052 60.116167 0 0 0 0 1 delete
06:30:38 57.209099 60.116238 0 0 0 0 1 delete
06:30:37 57.209096 60.116321 0 0 0 0 1 delete
06:30:36 57.209086 60.116414 0 0 0 0 1 delete
06:30:35 57.209055 60.116508 0 0 0 0 1 delete
06:30:34 57.209036 60.116609 0 0 0 0 1 delete
06:30:33 57.208996 60.116712 0 0 0 0 1 delete
06:30:32 57.208966 60.116785 0 0 0 0 1 delete
06:30:31 57.208950 60.116872 0 0 0 0 1 delete
06:30:30 57.208948 60.116935 0 0 0 0 1 delete